createdAt,value
2022-08-14T00:03:20.219Z,12.10
2022-08-14T00:08:45.174Z,11.02
2022-08-14T00:13:52.977Z,14.30
2022-08-14T00:19:18.826Z,13.38
2022-08-14T00:24:28.180Z,14.48
2022-08-14T00:29:40.588Z,11.40
2022-08-14T00:34:47.111Z,12.20
2022-08-14T00:39:52.928Z,13.63
2022-08-14T00:44:57.528Z,13.00
2022-08-14T00:50:02.667Z,11.73
2022-08-14T00:55:09.313Z,10.32
2022-08-14T01:00:34.382Z,12.98
2022-08-14T01:05:41.868Z,13.50
2022-08-14T01:10:57.698Z,12.15
2022-08-14T01:16:04.545Z,11.77
2022-08-14T01:21:17.752Z,11.98
2022-08-14T01:26:35.124Z,11.93
2022-08-14T01:31:45.437Z,26.98
2022-08-14T01:36:54.392Z,10.38
2022-08-14T01:42:01.342Z,12.02
2022-08-14T01:47:21.686Z,11.48
2022-08-14T01:52:34.277Z,11.30
2022-08-14T01:58:18.164Z,12.70
2022-08-14T02:03:13.668Z,12.65
2022-08-14T02:08:22.466Z,12.40
2022-08-14T02:13:39.563Z,12.52
2022-08-14T02:18:46.611Z,12.07
2022-08-14T02:23:53.559Z,12.77
2022-08-14T02:29:00.537Z,14.38
2022-08-14T02:34:19.947Z,16.17
2022-08-14T02:39:26.147Z,14.10
2022-08-14T02:44:32.299Z,13.60
2022-08-14T02:49:42.988Z,16.02
2022-08-14T02:54:46.376Z,17.50
2022-08-14T02:59:52.418Z,18.50
2022-08-14T03:04:55.996Z,18.15
2022-08-14T03:10:27.484Z,25.75
2022-08-14T03:15:25.442Z,22.98
2022-08-14T03:20:30.610Z,21.05
2022-08-14T03:25:37.690Z,23.45
2022-08-14T03:30:43.879Z,18.48
2022-08-14T03:36:07.603Z,20.20
2022-08-14T03:41:14.584Z,19.30
2022-08-14T03:46:38.730Z,21.60
2022-08-14T03:51:42.428Z,20.35
2022-08-14T03:56:46.547Z,18.02
2022-08-14T04:02:01.167Z,21.10
2022-08-14T04:12:13.527Z,20.20
2022-08-14T04:17:18.839Z,23.83
2022-08-14T04:22:23.983Z,24.45
2022-08-14T04:27:27.989Z,21.23
2022-08-14T04:32:58.391Z,23.73
2022-08-14T04:38:38.411Z,25.13
2022-08-14T04:43:40.296Z,20.98
2022-08-14T04:48:51.394Z,24.02
2022-08-14T04:54:00.485Z,18.13
2022-08-14T04:59:09.971Z,20.65
2022-08-14T05:04:16.272Z,25.02
2022-08-14T05:09:24.571Z,21.85
2022-08-14T05:14:43.050Z,20.85
2022-08-14T05:21:04.934Z,22.05
2022-08-14T05:25:14.992Z,21.77
2022-08-14T05:30:20.272Z,22.95
2022-08-14T05:35:24.967Z,20.30
2022-08-14T05:40:29.850Z,19.63
2022-08-14T05:45:35.746Z,19.48
2022-08-14T05:50:41.465Z,19.67
2022-08-14T05:55:45.324Z,20.13
2022-08-14T06:00:50.095Z,20.60
2022-08-14T06:05:57.784Z,20.77
2022-08-14T06:11:05.902Z,21.45
2022-08-14T06:16:09.664Z,21.95
2022-08-14T06:21:17.512Z,24.42
2022-08-14T06:26:22.438Z,23.27
2022-08-14T06:31:25.786Z,22.23
2022-08-14T06:36:30.540Z,24.20
2022-08-14T06:41:57.244Z,23.30
2022-08-14T06:46:56.559Z,22.60
2022-08-14T06:52:01.055Z,21.13
2022-08-14T06:57:05.115Z,23.17
2022-08-14T07:02:29.218Z,21.40
2022-08-14T07:07:39.192Z,21.83
2022-08-14T07:13:01.015Z,21.20
2022-08-14T07:18:08.918Z,22.30
2022-08-14T07:23:20.693Z,21.90
2022-08-14T07:28:27.679Z,21.58
2022-08-14T07:33:35.571Z,20.05
2022-08-14T07:38:41.413Z,20.30
2022-08-14T07:43:55.250Z,21.42
2022-08-14T07:48:59.864Z,21.10
2022-08-14T07:54:10.911Z,21.13
2022-08-14T07:59:14.673Z,24.90
2022-08-14T08:04:24.280Z,22.50
2022-08-14T08:09:33.050Z,22.58
2022-08-14T08:14:55.608Z,20.80
2022-08-14T08:19:59.795Z,20.67
2022-08-14T08:25:08.552Z,21.88
2022-08-14T08:30:17.006Z,20.95
2022-08-14T08:35:23.784Z,20.33
2022-08-14T08:40:30.961Z,20.65
2022-08-14T08:45:35.914Z,19.77
2022-08-14T08:55:45.048Z,19.77
2022-08-14T09:00:54.459Z,21.95
2022-08-14T09:06:01.094Z,19.00
2022-08-14T09:11:19.486Z,20.35
2022-08-14T09:16:28.273Z,18.80
2022-08-14T09:21:32.181Z,21.80
2022-08-14T09:26:37.627Z,19.88
2022-08-14T09:31:52.737Z,20.55
2022-08-14T09:37:18.309Z,18.40
2022-08-14T09:42:49.849Z,16.90
2022-08-14T09:47:56.230Z,17.30
2022-08-14T09:53:04.025Z,17.30
2022-08-14T09:58:19.654Z,16.60
2022-08-14T10:03:33.234Z,17.27
2022-08-14T10:08:45.243Z,19.07
2022-08-14T10:13:58.913Z,15.50
2022-08-14T10:19:05.250Z,15.27
2022-08-14T10:24:11.171Z,15.27
2022-08-14T10:29:32.171Z,16.33
2022-08-14T10:34:38.767Z,16.77
2022-08-14T10:40:01.461Z,16.55
2022-08-14T10:45:21.645Z,15.75
2022-08-14T10:50:32.749Z,15.32
2022-08-14T10:55:45.566Z,15.40
2022-08-14T11:00:58.611Z,15.25
2022-08-14T11:06:14.802Z,15.52
2022-08-14T11:11:19.850Z,14.60
2022-08-14T11:16:27.146Z,15.45
2022-08-14T11:21:34.122Z,16.33
2022-08-14T11:26:38.985Z,16.88
2022-08-14T11:31:43.595Z,16.55
2022-08-14T11:37:02.530Z,17.27
2022-08-14T11:42:56.141Z,16.73
2022-08-14T11:48:13.041Z,16.80
2022-08-14T11:53:20.477Z,14.90
2022-08-14T11:58:28.498Z,19.38
2022-08-14T12:03:51.200Z,18.08
2022-08-14T12:08:59.784Z,17.38
2022-08-14T12:14:08.835Z,16.83
2022-08-14T12:19:51.460Z,17.08
2022-08-14T12:24:57.422Z,18.27
2022-08-14T12:30:01.339Z,15.77
2022-08-14T12:35:07.265Z,15.73
2022-08-14T12:40:19.636Z,18.48
2022-08-14T12:45:33.521Z,15.07
2022-08-14T12:50:40.838Z,15.80
2022-08-14T12:56:22.512Z,16.48
2022-08-14T13:01:20.759Z,16.40
2022-08-14T13:06:27.496Z,14.20
2022-08-14T13:11:36.820Z,15.65
2022-08-14T13:16:44.572Z,17.30
2022-08-14T13:22:04.986Z,15.15
2022-08-14T13:27:13.334Z,13.63
2022-08-14T13:32:18.255Z,19.45
2022-08-14T13:37:22.993Z,17.48
2022-08-14T13:42:31.650Z,17.13
2022-08-14T13:47:35.717Z,15.75
2022-08-14T13:52:52.765Z,14.88
2022-08-14T13:58:05.154Z,18.13
2022-08-14T14:03:09.279Z,14.85
2022-08-14T14:08:18.851Z,14.50
2022-08-14T14:13:41.875Z,13.68
2022-08-14T14:18:52.348Z,16.23
2022-08-14T14:23:58.265Z,15.57
2022-08-14T14:29:03.140Z,14.05
2022-08-14T14:34:12.700Z,16.60
2022-08-14T14:39:35.414Z,16.33
2022-08-14T14:44:42.441Z,15.13
2022-08-14T14:49:54.800Z,15.73
2022-08-14T14:55:00.151Z,14.80
2022-08-14T15:00:05.385Z,15.50
2022-08-14T15:05:09.731Z,18.88
2022-08-14T15:10:27.964Z,13.25
2022-08-14T15:15:36.947Z,15.05
2022-08-14T15:20:42.038Z,18.30
2022-08-14T15:25:52.284Z,15.80
2022-08-14T15:30:58.970Z,16.95
2022-08-14T15:36:04.155Z,15.65
2022-08-14T15:41:08.787Z,15.82
2022-08-14T15:46:41.126Z,17.23
2022-08-14T15:51:35.163Z,18.67
2022-08-14T15:56:46.673Z,18.40
2022-08-14T16:01:54.565Z,16.67
2022-08-14T16:06:58.162Z,17.80
2022-08-14T16:12:02.789Z,18.33
2022-08-14T16:17:09.304Z,18.65
2022-08-14T16:22:57.426Z,18.58
2022-08-14T16:33:05.697Z,17.30
2022-08-14T16:38:19.850Z,20.92
2022-08-14T16:40:24.432Z,23.55
2022-08-14T16:43:35.013Z,19.58
2022-08-14T16:48:58.005Z,17.65
2022-08-14T16:54:03.553Z,18.27
2022-08-14T16:59:30.492Z,18.67
2022-08-14T17:04:49.367Z,18.45
2022-08-14T17:09:54.728Z,22.40
2022-08-14T17:15:09.887Z,19.17
2022-08-14T17:20:39.217Z,19.27
2022-08-14T17:25:38.023Z,17.48
2022-08-14T17:30:51.382Z,22.77
2022-08-14T17:36:09.838Z,19.63
2022-08-14T17:41:23.728Z,20.27
2022-08-14T17:46:43.578Z,21.73
2022-08-14T17:52:07.807Z,20.30
2022-08-14T17:57:28.413Z,24.20
2022-08-14T18:02:38.250Z,23.60
2022-08-14T18:08:00.197Z,21.25
2022-08-14T18:13:05.467Z,25.17
2022-08-14T18:18:13.594Z,22.63
2022-08-14T18:23:19.340Z,24.00
2022-08-14T18:28:45.045Z,22.75
2022-08-14T18:33:56.234Z,18.92
2022-08-14T18:39:21.145Z,15.43
2022-08-14T18:45:12.940Z,19.45
2022-08-14T18:50:27.346Z,13.82
2022-08-14T18:55:54.037Z,13.15
2022-08-14T19:00:59.311Z,20.35
2022-08-14T19:06:05.930Z,16.45
2022-08-14T19:11:45.718Z,14.95
2022-08-14T19:16:54.242Z,12.48
2022-08-14T19:21:59.286Z,14.50
2022-08-14T19:27:19.302Z,13.65
2022-08-14T19:32:41.065Z,17.40
2022-08-14T19:37:48.452Z,13.75
2022-08-14T19:42:58.310Z,13.52
2022-08-14T19:48:02.732Z,14.70
2022-08-14T19:53:11.628Z,13.55
2022-08-14T19:58:26.023Z,15.00
2022-08-14T20:04:00.108Z,18.17
2022-08-14T20:11:07.902Z,14.57
2022-08-14T20:14:31.554Z,16.15
2022-08-14T20:19:41.364Z,15.18
2022-08-14T20:24:47.410Z,16.35
2022-08-14T20:30:34.256Z,16.67
2022-08-14T20:40:50.547Z,14.30
2022-08-14T20:45:53.780Z,15.60
2022-08-14T20:50:58.796Z,15.50
2022-08-14T20:56:28.909Z,13.55
2022-08-14T21:01:36.611Z,15.85
2022-08-14T21:07:22.952Z,13.48
2022-08-14T21:12:04.944Z,15.30
2022-08-14T21:17:09.559Z,12.65
2022-08-14T21:22:13.354Z,13.40
2022-08-14T21:27:21.666Z,13.32
2022-08-14T21:32:47.127Z,16.52
2022-08-14T21:37:54.427Z,18.17
2022-08-14T21:42:59.038Z,15.93
2022-08-14T21:48:10.739Z,16.10
2022-08-14T21:53:15.313Z,14.77
2022-08-14T21:58:53.919Z,15.32
2022-08-14T22:03:44.949Z,17.23
2022-08-14T22:08:52.944Z,13.60
2022-08-14T22:13:56.560Z,17.00
2022-08-14T22:19:11.207Z,18.58
2022-08-14T22:24:25.941Z,14.80
2022-08-14T22:29:42.735Z,20.23
2022-08-14T22:34:48.665Z,16.27
2022-08-14T22:40:53.925Z,16.85
2022-08-14T22:45:15.217Z,17.90
2022-08-14T22:50:31.016Z,16.20
2022-08-14T22:55:36.493Z,17.48
2022-08-14T23:00:40.456Z,17.73
2022-08-14T23:05:51.778Z,18.77
2022-08-14T23:10:56.113Z,25.90
2022-08-14T23:15:59.148Z,21.08
2022-08-14T23:21:03.981Z,17.17
2022-08-14T23:26:49.570Z,18.58
2022-08-14T23:31:36.183Z,16.65
2022-08-14T23:36:53.039Z,15.73
2022-08-14T23:42:02.526Z,20.50
2022-08-14T23:47:11.967Z,15.85
2022-08-14T23:52:55.804Z,16.58
2022-08-14T23:58:00.659Z,20.02
